Bonita, CA

5:20 AM PDT on September 18, 2014 (GMT -0700)
San Diego International-Lindbergh | Change Station
CLOSE
Current Station
Airport
Location: San Diego,
Elevation: 30 ft
Nearby Weather Stations

Elev 30 ft 32.73 °N, 117.18 °W | Updated 29 minutes ago

Overcast
Overcast
73 °F
Feels Like 73 °F
N
0
Wind Variable Wind from North

Today
High -- | Low -- °F
--% Chance of Precip.
Yesterday
High -- | Low -- °F
Precip. -- in
6:33 AM 6:49 PM
Waning Crescent, 27% visible
Pressure 29.83 in
Visibility 9.0 miles
Clouds Overcast 1400 ft
Dew Point 68 °F
Humidity 84%
Rainfall 0.00 in
Snow Depth 0 in , 0 in , 0 in
UV 0 out of 12
Pollen 6.10 out of 12
PM2.5 Good
Flu Activity Not available.
METAR KSAN 181151Z 00000KT 9SM OVC014 23/20 A2983 RMK AO2 SLP099 T02280200 10239 20228 53000 $

More Conditions Fewer Conditions

Pressure 29.83 in
Visibility 9.0 miles
Clouds Overcast 1400 ft
Dew Point 68 °F
Humidity 84%
Rainfall 0.00 in
Snow Depth 0 in , 0 in , 0 in
UV 0 out of 12
Pollen 6.10 out of 12
PM2.5 Good
Flu Activity Not available.
METAR KSAN 181151Z 00000KT 9SM OVC014 23/20 A2983 RMK AO2 SLP099 T02280200 10239 20228 53000 $

More Conditions Fewer Conditions

10-Day Weather Forecast

Almanac

Astronomy

Sep. 18, 2014 Rise Set
Actual Time 6:33 AM PDT 6:49 PM PDT
Civil Twilight 6:09 AM PDT 7:14 PM PDT
Nautical Twilight 5:40 AM PDT 7:43 PM PDT
Astronomical Twilight 5:11 AM PDT 8:12 PM PDT
Moon 1:42 AM PDT 3:32 PM PDT
Length of Visible Light 13h 05m
Length of Day
12h 16m
Tomorrow will be 2m 0s shorter.
Waning Crescent, 27% of the Moon is Illuminated
Today
Waning Crescent
Sep 24
New
Oct 1
First Quarter
Oct 8
Full
Oct 15
Last Quarter

Today's Extremes

State Highs State Lows

Community

WunderPhotos

Upload Photos

1,754,333 photos uploaded!

Nearby

Air Quality

  Air Quality AQ Index Pollutant
Yesterday Good
OZONE
Yesterday Good
PM2.5
Current Good
PM2.5
Thursday Moderate
PM2.5
Thursday Moderate
OZONE

Snow Depth

Station Depth Elevation
Spratt Creek 0 in 6200 ft
Independence Camp 0 in 7000 ft
Monitor Pass 0 in 8350 ft
Summit Meadow 1 in 9122 ft
Adin Mountain 1 in 6200 ft

Earthquake Activity

City Distance Mag. Time & Date
La Quinta, California 66 miles 2.7 8:59 PM PDT
2014-09-15
Minimum magnitude displayed is 2.5.

Coastal Water Temperatures

Place Temperature
La Jolla, CA 72.0 °F
San Diego, CA 75.0 °F

Nearby Weather Stations